This is the latest recevied weather packets stored in our database for station/object K1ZK-13. If no packets are shown the sender has not sent any weather packets the latest 1 day(s).
| Time | Temp. | Humidity | Pressure | Rain* | Wind** | Luminosity | Snow |
|---|---|---|---|---|---|---|---|
| 1777995598 | 22.78° C | 55% | 1003.8 hPa | 0 mm | 2.24 m/s, 91° | 601 W/m² | - |
| 1777995295 | 22.78° C | 59% | 1004 hPa | 0 mm | 0.89 m/s, 112° | 592 W/m² | - |
| 1777994991 | 22.22° C | 58% | 1004 hPa | 0 mm | 1.34 m/s, 126° | 618 W/m² | - |
| 1777994689 | 21.67° C | 56% | 1004.1 hPa | 0 mm | 2.24 m/s, 187° | 604 W/m² | - |
| 1777994384 | 21.67° C | 57% | 1004.3 hPa | 0 mm | 1.34 m/s, 335° | 593 W/m² | - |
| 1777994080 | 21.67° C | 58% | 1004.3 hPa | 0 mm | 1.79 m/s, 155° | 589 W/m² | - |
| 1777993777 | 21.11° C | 61% | 1004.4 hPa | 0 mm | 0.89 m/s, 187° | 541 W/m² | - |
| 1777993474 | 20.56° C | 60% | 1004.3 hPa | 0 mm | 0.89 m/s, 157° | 447 W/m² | - |
| 1777993173 | 20.56° C | 59% | 1004.5 hPa | 0 mm | 2.24 m/s, 109° | 511 W/m² | - |
| 1777992872 | 21.11° C | 59% | 1004.5 hPa | 0 mm | 1.34 m/s, 112° | 515 W/m² | - |
| 1777992569 | 20.56° C | 59% | 1004.7 hPa | 0 mm | 1.34 m/s, 156° | 450 W/m² | - |
| 1777992267 | 20.56° C | 59% | 1004.7 hPa | 0 mm | 1.79 m/s, 235° | 531 W/m² | - |
| 1777991964 | 21.11° C | 57% | 1005 hPa | 0 mm | 2.68 m/s, 168° | 515 W/m² | - |
| 1777991662 | 21.11° C | 59% | 1004.9 hPa | 0 mm | 0 m/s | 544 W/m² | - |
| 1777991359 | 20.56° C | 59% | 1004.8 hPa | 0 mm | 0.89 m/s, 202° | 528 W/m² | - |
| 1777991056 | 20.56° C | 61% | 1005 hPa | 0 mm | 0.89 m/s, 136° | 498 W/m² | - |
| 1777990753 | 20° C | 61% | 1005 hPa | 0 mm | 0.89 m/s, 148° | 512 W/m² | - |
| 1777990450 | 19.44° C | 61% | 1005.3 hPa | 0 mm | 1.34 m/s, 138° | 506 W/m² | - |
| 1777990147 | 18.89° C | 61% | 1005.1 hPa | 0 mm | 1.34 m/s, 113° | 517 W/m² | - |
| 1777989844 | 18.33° C | 63% | 1005.1 hPa | 0 mm | 1.79 m/s, 149° | 362 W/m² | - |
| 1777989541 | 17.22° C | 67% | 1005.2 hPa | 0 mm | 0.89 m/s, 180° | 545 W/m² | - |
| 1777989237 | 16.11° C | 71% | 1005.2 hPa | 0 mm | 0.89 m/s, 180° | 198 W/m² | - |
| 1777988933 | 17.22° C | 65% | 1005 hPa | 0 mm | 1.79 m/s, 152° | 83 W/m² | - |
| 1777988630 | 17.22° C | 61% | 1005.8 hPa | 0 mm | 1.34 m/s, 145° | 55 W/m² | - |
| 1777988327 | 17.22° C | 62% | 1005.8 hPa | 0 mm | 0.89 m/s, 114° | 191 W/m² | - |
* Rain latest hour (hover to see other rain measurements)
** Current wind speed in m/s (hover to see current wind gust speed)